Time;durP1;ratioP1;P1;durP2;ratioP2;P2;SDS_P1;SDS_P2;PMS_P1;PMS_P2;Temp;Humidity;BMP_temperature;BMP_pressure;BME280_temperature;BME280_humidity;BME280_pressure;Samples;Min_cycle;Max_cycle;Signal;HPM_P1;HPM_P2
2022/10/22 00:00:12;;;;;;;4.10;3.63;;;13.60;89.90;;;;;;5051141;28;20072;-35
2022/10/22 00:02:38;;;;;;;6.65;3.30;;;13.50;89.80;;;;;;5051403;28;20033;-35
2022/10/22 00:05:05;;;;;;;3.22;2.92;;;13.50;89.80;;;;;;5051278;28;20055;-35
2022/10/22 00:07:31;;;;;;;4.38;3.30;;;13.50;89.80;;;;;;5051492;28;20029;-34
2022/10/22 00:09:56;;;;;;;4.20;2.90;;;13.50;89.80;;;;;;5051211;28;20047;-35
2022/10/22 00:12:22;;;;;;;3.88;3.00;;;13.40;89.80;;;;;;5049939;28;20029;-33
2022/10/22 00:14:48;;;;;;;5.28;3.25;;;13.40;89.90;;;;;;5051426;28;20102;-34
2022/10/22 00:17:14;;;;;;;5.38;3.22;;;13.30;89.90;;;;;;5051343;28;20033;-35
2022/10/22 00:19:40;;;;;;;4.18;3.05;;;13.30;89.90;;;;;;5051609;28;20040;-35
2022/10/22 00:22:06;;;;;;;3.50;2.80;;;13.40;90.00;;;;;;5051199;28;20036;-35
2022/10/22 00:24:32;;;;;;;4.00;2.90;;;13.40;90.00;;;;;;5050986;28;20094;-34
2022/10/22 00:26:58;;;;;;;4.18;3.05;;;13.40;89.90;;;;;;5049826;28;20086;-35
2022/10/22 00:29:24;;;;;;;3.85;3.00;;;13.40;89.80;;;;;;5051174;28;20029;-35
2022/10/22 00:31:50;;;;;;;5.72;3.00;;;13.40;89.80;;;;;;5053629;28;20380;-35
2022/10/22 00:34:17;;;;;;;4.25;2.97;;;13.40;89.80;;;;;;5054886;28;20029;-33
2022/10/22 00:36:43;;;;;;;3.47;3.08;;;13.40;89.80;;;;;;5054863;28;20481;-35
2022/10/22 00:39:08;;;;;;;5.18;3.28;;;13.40;89.80;;;;;;5054907;28;20040;-35
2022/10/22 00:41:34;;;;;;;5.13;3.40;;;13.40;89.80;;;;;;5054694;28;20033;-35
2022/10/22 00:44:02;;;;;;;6.20;3.55;;;13.40;89.70;;;;;;5054689;28;20047;-35
2022/10/22 00:46:29;;;;;;;3.88;3.03;;;13.40;89.70;;;;;;5054569;28;20037;-35
2022/10/22 00:48:57;;;;;;;5.05;3.20;;;13.40;89.70;;;;;;5054710;28;20484;-34
2022/10/22 00:51:27;;;;;;;5.10;3.30;;;13.40;89.70;;;;;;5054411;28;20034;-35
2022/10/22 00:53:58;;;;;;;4.07;3.20;;;13.40;89.70;;;;;;5054456;28;20362;-35
2022/10/22 00:56:24;;;;;;;4.32;3.17;;;13.50;89.80;;;;;;5054474;28;20029;-35
2022/10/22 00:58:55;;;;;;;3.67;3.13;;;13.50;89.70;;;;;;5054528;28;20115;-35
2022/10/22 01:01:24;;;;;;;5.18;3.60;;;13.50;89.70;;;;;;5054365;28;20105;-35
2022/10/22 01:03:51;;;;;;;4.90;3.42;;;13.50;89.70;;;;;;5054503;28;20033;-35
2022/10/22 01:06:31;;;;;;;5.03;4.00;;;13.50;89.70;;;;;;5054163;28;20169;-35
2022/10/22 01:09:30;;;;;;;4.65;3.50;;;13.50;89.70;;;;;;5054455;28;20040;-35
2022/10/22 01:12:27;;;;;;;4.53;3.45;;;13.50;89.80;;;;;;5054156;28;20036;-34
2022/10/22 01:15:36;;;;;;;4.63;3.58;;;13.40;89.80;;;;;;5046270;28;20227;-34
2022/10/22 01:18:16;;;;;;;5.43;3.80;;;13.40;89.90;;;;;;5053785;28;20037;-34
2022/10/22 01:20:42;;;;;;;4.75;3.70;;;13.30;90.00;;;;;;5053818;28;20037;-35
2022/10/22 01:23:44;;;;;;;5.68;3.78;;;13.30;90.00;;;;;;5053724;28;20157;-35
2022/10/22 01:26:15;;;;;;;6.13;3.65;;;13.30;90.00;;;;;;5053607;28;20378;-36
2022/10/22 01:28:59;;;;;;;3.63;3.30;;;13.30;90.00;;;;;;5053699;28;20064;-38
2022/10/22 01:31:31;;;;;;;6.53;3.83;;;13.30;90.00;;;;;;5053603;28;20588;-35
2022/10/22 01:33:58;;;;;;;4.22;3.63;;;13.40;90.00;;;;;;5053598;28;20044;-35
2022/10/22 01:36:24;;;;;;;4.93;3.35;;;13.40;90.00;;;;;;5053829;28;20021;-35
2022/10/22 01:38:51;;;;;;;5.43;3.80;;;13.30;90.00;;;;;;5053667;28;20037;-35
2022/10/22 01:41:17;;;;;;;5.50;3.40;;;13.30;90.00;;;;;;5051963;28;20021;-35
2022/10/22 01:43:42;;;;;;;5.75;3.83;;;13.30;90.00;;;;;;5053759;28;20025;-34
2022/10/22 01:46:10;;;;;;;3.78;3.35;;;13.30;90.00;;;;;;5053598;28;20082;-34
2022/10/22 01:49:11;;;;;;;3.65;3.30;;;13.30;90.10;;;;;;5053708;28;20044;-35
2022/10/22 01:52:21;;;;;;;5.55;3.90;;;13.20;90.10;;;;;;5053457;28;20029;-35
2022/10/22 01:55:19;;;;;;;3.80;3.40;;;13.20;90.10;;;;;;5053780;28;20040;-35
2022/10/22 01:58:00;;;;;;;4.88;3.78;;;13.10;90.10;;;;;;5053730;28;20032;-34
2022/10/22 02:00:26;;;;;;;5.82;3.72;;;13.10;90.10;;;;;;5053176;28;20055;-33
2022/10/22 02:03:00;;;;;;;5.25;3.65;;;13.10;90.20;;;;;;5053502;28;20341;-34
2022/10/22 02:05:33;;;;;;;6.30;3.40;;;13.00;90.20;;;;;;5053287;28;20510;-34
2022/10/22 02:08:04;;;;;;;5.55;3.70;;;13.00;90.20;;;;;;5053346;28;20037;-36
2022/10/22 02:10:30;;;;;;;6.65;3.50;;;13.00;90.20;;;;;;5053098;28;20104;-50
2022/10/22 02:12:58;;;;;;;5.65;3.90;;;13.00;90.30;;;;;;5052017;28;20036;-37
2022/10/22 02:15:28;;;;;;;3.60;3.22;;;13.00;90.30;;;;;;5053124;28;20029;-42
2022/10/22 02:17:57;;;;;;;5.70;3.63;;;12.90;90.50;;;;;;5053002;28;20065;-35
2022/10/22 02:20:28;;;;;;;6.15;4.45;;;13.00;90.30;;;;;;5053061;28;20056;-34
2022/10/22 02:22:55;;;;;;;6.72;4.05;;;12.90;90.30;;;;;;5053386;28;20101;-34
2022/10/22 02:25:23;;;;;;;6.40;4.22;;;12.90;90.30;;;;;;5052960;28;20124;-34
2022/10/22 02:28:01;;;;;;;6.72;4.05;;;12.90;90.30;;;;;;5052828;28;20036;-35
2022/10/22 02:30:26;;;;;;;4.35;3.88;;;12.90;90.30;;;;;;5052772;28;20432;-34
2022/10/22 02:33:23;;;;;;;7.35;3.83;;;12.90;90.30;;;;;;5052513;28;20025;-35
2022/10/22 02:35:51;;;;;;;7.38;3.78;;;12.90;90.30;;;;;;5050808;28;20067;-35
2022/10/22 02:38:17;;;;;;;5.88;3.90;;;12.80;90.30;;;;;;5052417;28;20086;-34
2022/10/22 02:40:43;;;;;;;7.05;3.97;;;12.80;90.30;;;;;;5052440;28;20028;-35
2022/10/22 02:43:09;;;;;;;5.10;3.70;;;12.80;90.30;;;;;;5052492;28;20389;-35
2022/10/22 02:45:35;;;;;;;6.25;3.72;;;12.80;90.30;;;;;;5052156;28;20519;-33
2022/10/22 02:48:02;;;;;;;6.50;3.85;;;12.80;90.30;;;;;;5052498;28;20021;-34
2022/10/22 02:50:27;;;;;;;5.25;3.72;;;12.80;90.40;;;;;;5052107;28;20036;-33
2022/10/22 02:52:53;;;;;;;4.82;4.10;;;12.80;90.40;;;;;;5051924;28;20024;-33
2022/10/22 02:55:18;;;;;;;4.40;3.53;;;12.80;90.40;;;;;;5051732;28;20507;-33
2022/10/22 02:57:44;;;;;;;4.55;3.60;;;12.80;90.40;;;;;;5052221;28;20064;-33
2022/10/22 03:00:11;;;;;;;4.72;3.85;;;12.80;90.40;;;;;;5051755;28;20081;-33
2022/10/22 03:02:37;;;;;;;6.78;3.80;;;12.80;90.40;;;;;;5051932;28;20033;-33
2022/10/22 03:05:04;;;;;;;5.75;3.88;;;12.80;90.40;;;;;;5051885;28;20370;-32
2022/10/22 03:07:29;;;;;;;6.22;3.72;;;12.80;90.40;;;;;;5051993;28;20028;-34
2022/10/22 03:09:55;;;;;;;5.50;4.20;;;12.80;90.40;;;;;;5052045;28;20117;-33
2022/10/22 03:12:21;;;;;;;4.82;3.95;;;12.80;90.40;;;;;;5051898;28;20111;-39
2022/10/22 03:14:46;;;;;;;7.30;4.15;;;12.80;90.40;;;;;;5051925;28;20483;-33
2022/10/22 03:17:12;;;;;;;5.68;3.70;;;12.80;90.40;;;;;;5051907;28;20025;-33
2022/10/22 03:19:38;;;;;;;6.22;3.63;;;12.80;90.40;;;;;;5051783;28;20028;-34
2022/10/22 03:22:08;;;;;;;5.03;3.83;;;12.80;90.40;;;;;;5051906;28;20017;-34
2022/10/22 03:24:43;;;;;;;5.07;3.28;;;12.80;90.40;;;;;;5051737;28;20368;-34
2022/10/22 03:27:11;;;;;;;4.35;3.47;;;12.80;90.40;;;;;;5052032;28;20061;-34
2022/10/22 03:29:38;;;;;;;5.15;3.47;;;12.80;90.40;;;;;;5051493;28;20025;-33
2022/10/22 03:32:04;;;;;;;5.13;3.47;;;12.80;90.40;;;;;;5051513;28;20514;-33
2022/10/22 03:34:30;;;;;;;4.47;3.38;;;12.80;90.40;;;;;;5051538;28;20024;-34
2022/10/22 03:36:58;;;;;;;6.50;4.13;;;12.80;90.40;;;;;;5051724;28;20022;-34
2022/10/22 03:39:26;;;;;;;5.00;3.72;;;12.70;90.40;;;;;;5051679;28;20121;-33
2022/10/22 03:41:52;;;;;;;8.57;3.92;;;12.70;90.40;;;;;;5051550;28;20540;-34
2022/10/22 03:44:19;;;;;;;5.90;3.60;;;12.70;90.50;;;;;;5051419;28;20112;-34
2022/10/22 03:46:44;;;;;;;5.25;3.67;;;12.70;90.50;;;;;;5051522;28;20033;-33
2022/10/22 03:49:10;;;;;;;4.45;3.50;;;12.70;90.50;;;;;;5051716;28;20025;-34
2022/10/22 03:51:36;;;;;;;4.93;3.55;;;12.70;90.50;;;;;;5051416;28;20100;-33
2022/10/22 03:54:02;;;;;;;4.70;3.40;;;12.70;90.50;;;;;;5050198;28;20437;-46
2022/10/22 03:56:28;;;;;;;6.68;3.80;;;12.60;90.50;;;;;;5051312;28;20037;-33
2022/10/22 03:58:58;;;;;;;3.60;3.05;;;12.60;90.50;;;;;;5051444;28;20021;-33
2022/10/22 04:01:25;;;;;;;6.60;3.83;;;12.60;90.50;;;;;;5051343;28;20512;-33
2022/10/22 04:03:50;;;;;;;4.30;3.35;;;12.60;90.50;;;;;;5051731;28;20484;-33
2022/10/22 04:06:16;;;;;;;7.85;3.70;;;12.60;90.50;;;;;;5054545;28;20033;-33
2022/10/22 04:08:43;;;;;;;5.30;3.70;;;12.60;90.50;;;;;;5055298;28;20025;-33
2022/10/22 04:11:10;;;;;;;5.53;3.55;;;12.60;90.60;;;;;;5055217;28;20060;-32
2022/10/22 04:13:36;;;;;;;6.32;3.65;;;12.50;90.50;;;;;;5055210;28;20137;-32
2022/10/22 04:16:12;;;;;;;5.40;3.80;;;12.60;90.60;;;;;;5055474;28;20087;-29
2022/10/22 04:18:39;;;;;;;4.45;3.47;;;12.60;90.50;;;;;;5055256;28;20033;-29
2022/10/22 04:21:06;;;;;;;4.90;3.75;;;12.60;90.70;;;;;;5054951;28;20163;-29
2022/10/22 04:23:32;;;;;;;4.38;3.55;;;12.60;90.50;;;;;;5054864;28;20032;-25
2022/10/22 04:25:59;;;;;;;5.70;3.63;;;12.50;90.50;;;;;;5054672;28;20029;-28
2022/10/22 04:28:24;;;;;;;6.88;3.50;;;12.50;90.80;;;;;;5054593;28;20068;-30
2022/10/22 04:30:50;;;;;;;5.53;3.90;;;12.50;90.50;;;;;;5054718;28;20472;-25
2022/10/22 04:33:16;;;;;;;5.97;3.20;;;12.50;90.50;;;;;;5054726;28;20124;-29
2022/10/22 04:35:41;;;;;;;6.55;3.72;;;12.50;90.50;;;;;;5054856;28;20449;-29
2022/10/22 04:38:07;;;;;;;4.38;3.53;;;12.50;90.50;;;;;;5054637;28;20033;-30
2022/10/22 04:40:32;;;;;;;4.32;3.35;;;12.50;90.50;;;;;;5054761;28;20055;-25
2022/10/22 04:42:58;;;;;;;5.65;3.90;;;12.40;90.50;;;;;;5054502;28;20037;-29
2022/10/22 04:45:23;;;;;;;4.68;3.35;;;12.40;90.50;;;;;;5054638;28;20120;-26
2022/10/22 04:47:49;;;;;;;5.53;3.63;;;12.40;90.50;;;;;;5054340;28;20029;-28
2022/10/22 04:50:15;;;;;;;8.27;3.42;;;12.40;90.50;;;;;;5054193;28;20075;-27
2022/10/22 04:52:40;;;;;;;5.97;3.63;;;12.40;90.50;;;;;;5054158;28;20366;-28
2022/10/22 04:55:06;;;;;;;5.80;3.22;;;12.40;90.50;;;;;;5054228;28;20025;-28
2022/10/22 04:57:32;;;;;;;5.60;3.33;;;12.40;90.50;;;;;;5054155;28;20024;-26
2022/10/22 04:59:57;;;;;;;4.60;3.22;;;12.40;90.50;;;;;;5053799;28;20049;-26
2022/10/22 05:02:23;;;;;;;6.07;3.25;;;12.40;90.50;;;;;;5054259;28;20437;-32
2022/10/22 05:04:48;;;;;;;4.88;3.13;;;12.40;90.60;;;;;;5053998;28;20048;-26
2022/10/22 05:07:14;;;;;;;4.30;3.03;;;12.40;90.60;;;;;;5053811;28;20067;-29
2022/10/22 05:09:40;;;;;;;4.65;3.20;;;12.30;90.60;;;;;;5054022;28;20075;-25
2022/10/22 05:12:05;;;;;;;4.55;2.80;;;12.40;90.60;;;;;;5053846;28;20032;-27
2022/10/22 05:14:32;;;;;;;3.72;3.33;;;12.40;90.60;;;;;;5053875;28;20021;-29
2022/10/22 05:16:57;;;;;;;4.40;3.35;;;12.40;90.60;;;;;;5053198;28;20029;-27
2022/10/22 05:19:26;;;;;;;6.30;3.30;;;12.40;90.60;;;;;;5053992;28;20381;-27
2022/10/22 05:21:57;;;;;;;5.32;3.05;;;12.40;90.50;;;;;;5053930;28;20025;-25
2022/10/22 05:24:24;;;;;;;3.30;2.80;;;12.40;90.50;;;;;;5053704;28;20124;-27
2022/10/22 05:26:51;;;;;;;6.03;3.05;;;12.40;90.50;;;;;;5053778;28;20032;-29
2022/10/22 05:29:17;;;;;;;5.47;3.30;;;12.40;90.50;;;;;;5053620;28;20101;-27
2022/10/22 05:31:43;;;;;;;4.55;3.15;;;12.40;90.50;;;;;;5053609;28;20477;-28
2022/10/22 05:34:09;;;;;;;3.25;2.95;;;12.40;90.50;;;;;;5053722;28;20070;-25
2022/10/22 05:36:34;;;;;;;3.90;2.95;;;12.40;90.50;;;;;;5053389;28;20033;-26
2022/10/22 05:39:00;;;;;;;5.82;3.03;;;12.40;90.50;;;;;;5053751;28;20054;-42
2022/10/22 05:41:27;;;;;;;4.18;2.75;;;12.40;90.50;;;;;;5053562;28;20025;-43
2022/10/22 05:43:57;;;;;;;4.65;3.05;;;12.40;90.50;;;;;;5053554;28;20066;-43
2022/10/22 05:46:26;;;;;;;3.88;2.90;;;12.40;90.50;;;;;;5053349;28;20028;-41
2022/10/22 05:48:58;;;;;;;5.72;3.40;;;12.40;90.50;;;;;;5053223;28;20071;-41
2022/10/22 05:51:25;;;;;;;6.78;3.70;;;12.40;90.50;;;;;;5053286;28;20375;-41
2022/10/22 05:53:53;;;;;;;7.80;3.78;;;12.40;90.60;;;;;;5053349;28;20023;-30
2022/10/22 05:56:20;;;;;;;7.13;3.40;;;12.40;90.60;;;;;;5051967;28;20481;-32
2022/10/22 05:58:45;;;;;;;6.57;3.22;;;12.40;90.60;;;;;;5052015;28;20021;-27
2022/10/22 06:01:14;;;;;;;4.60;3.15;;;12.40;90.60;;;;;;5053184;28;20505;-26
2022/10/22 06:03:41;;;;;;;6.45;3.33;;;12.40;90.60;;;;;;5052949;28;20029;-25
2022/10/22 06:06:29;;;;;;;8.05;3.30;;;12.40;90.60;;;;;;5052881;28;20063;-32
2022/10/22 06:08:58;;;;;;;7.93;3.17;;;12.40;90.60;;;;;;5049396;28;20473;-28
2022/10/22 06:11:23;;;;;;;3.85;2.78;;;12.40;90.60;;;;;;5052821;28;20024;-33
2022/10/22 06:13:50;;;;;;;4.60;2.83;;;12.40;90.60;;;;;;5052859;28;20024;-27
2022/10/22 06:16:16;;;;;;;7.13;2.70;;;12.40;90.60;;;;;;5052822;28;20087;-33
2022/10/22 06:18:42;;;;;;;4.25;2.85;;;12.40;90.60;;;;;;5053018;28;20025;-26
2022/10/22 06:21:10;;;;;;;4.18;2.78;;;12.50;90.60;;;;;;5051407;28;20025;-26
2022/10/22 06:23:37;;;;;;;3.15;2.85;;;12.50;90.60;;;;;;5052687;28;20025;-26
2022/10/22 06:26:04;;;;;;;6.05;2.97;;;12.60;90.60;;;;;;5052465;28;20040;-29
2022/10/22 06:28:30;;;;;;;6.95;3.15;;;12.60;90.60;;;;;;5051470;28;20024;-26
2022/10/22 06:31:00;;;;;;;8.20;3.10;;;12.70;90.60;;;;;;5052384;28;20017;-26
2022/10/22 06:33:26;;;;;;;5.72;2.45;;;12.80;90.60;;;;;;5052194;28;20108;-26
2022/10/22 06:35:52;;;;;;;8.38;3.22;;;12.90;90.50;;;;;;5052375;28;20028;-27
2022/10/22 06:38:18;;;;;;;8.27;3.08;;;12.90;90.50;;;;;;5052286;28;20388;-26
2022/10/22 06:40:43;;;;;;;3.72;2.50;;;13.00;90.50;;;;;;5052636;28;20025;-26
2022/10/22 06:43:10;;;;;;;3.28;2.58;;;13.10;90.40;;;;;;5052445;28;20029;-27
2022/10/22 06:45:36;;;;;;;5.22;2.83;;;13.20;90.50;;;;;;5052375;28;20365;-31
2022/10/22 06:48:01;;;;;;;5.20;2.72;;;13.30;90.50;;;;;;5052435;28;20025;-30
2022/10/22 06:50:27;;;;;;;8.02;2.85;;;13.30;90.40;;;;;;5052379;28;20025;-31
2022/10/22 06:52:53;;;;;;;6.55;2.60;;;13.40;90.40;;;;;;5052321;28;20096;-26
2022/10/22 06:55:18;;;;;;;5.80;2.42;;;13.40;90.50;;;;;;5052184;28;20687;-28
2022/10/22 06:57:44;;;;;;;7.10;2.60;;;13.50;90.50;;;;;;5052102;28;20120;-28
2022/10/22 07:00:10;;;;;;;7.68;2.75;;;13.50;90.50;;;;;;5051976;28;20071;-27
2022/10/22 07:02:35;;;;;;;5.28;2.67;;;13.50;90.50;;;;;;5052054;28;20033;-28
2022/10/22 07:05:01;;;;;;;7.03;2.38;;;13.60;90.50;;;;;;5052098;28;20036;-29
2022/10/22 07:07:26;;;;;;;5.57;2.65;;;13.60;90.50;;;;;;5052066;28;20032;-27
2022/10/22 07:09:52;;;;;;;7.72;2.33;;;13.70;90.60;;;;;;5052078;28;20410;-27
2022/10/22 07:12:17;;;;;;;4.55;2.28;;;13.70;90.50;;;;;;5051995;28;20485;-25
2022/10/22 07:14:43;;;;;;;5.50;2.50;;;13.80;90.50;;;;;;5052022;28;20466;-27
2022/10/22 07:17:09;;;;;;;6.82;2.50;;;13.90;90.50;;;;;;5052116;28;20514;-27
2022/10/22 07:19:34;;;;;;;6.90;2.55;;;14.00;90.40;;;;;;5051870;28;20389;-29
2022/10/22 07:22:00;;;;;;;3.75;2.35;;;14.10;90.40;;;;;;5052040;28;20021;-25
2022/10/22 07:24:26;;;;;;;6.28;2.45;;;14.10;90.30;;;;;;5051989;28;20136;-29
2022/10/22 07:26:52;;;;;;;3.70;1.95;;;14.20;90.30;;;;;;5051769;28;20108;-27
2022/10/22 07:29:17;;;;;;;6.63;2.40;;;14.30;90.30;;;;;;5051464;28;20025;-26
2022/10/22 07:31:43;;;;;;;6.53;2.20;;;14.40;90.30;;;;;;5051633;28;20356;-27
2022/10/22 07:34:09;;;;;;;6.40;2.72;;;14.40;90.20;;;;;;5051759;28;20025;-32
2022/10/22 07:36:34;;;;;;;7.18;2.58;;;14.50;90.20;;;;;;5051805;28;20025;-29
2022/10/22 07:39:02;;;;;;;5.78;3.10;;;14.50;90.20;;;;;;5051799;28;20028;-28
2022/10/22 07:41:29;;;;;;;6.40;2.90;;;14.60;90.20;;;;;;5055516;28;20098;-29
2022/10/22 07:43:56;;;;;;;6.68;2.70;;;14.60;90.10;;;;;;5055835;28;20078;-29
2022/10/22 07:46:22;;;;;;;5.28;2.47;;;14.60;90.10;;;;;;5055668;28;20116;-29
2022/10/22 07:48:47;;;;;;;5.22;2.60;;;14.70;90.10;;;;;;5055837;28;20056;-26
2022/10/22 07:51:13;;;;;;;5.90;2.30;;;14.80;90.10;;;;;;5055681;28;20021;-27
2022/10/22 07:53:39;;;;;;;4.68;2.35;;;14.90;90.10;;;;;;5055732;28;20067;-29
2022/10/22 07:56:05;;;;;;;6.03;2.50;;;14.90;90.00;;;;;;5055750;28;20036;-34
2022/10/22 07:58:30;;;;;;;5.28;2.25;;;14.90;90.00;;;;;;5055663;28;20405;-26
2022/10/22 08:00:59;;;;;;;3.50;2.33;;;14.90;90.00;;;;;;5054101;28;20068;-27
2022/10/22 08:03:25;;;;;;;7.68;2.30;;;15.00;90.00;;;;;;5055611;28;20021;-29
2022/10/22 08:05:51;;;;;;;7.25;2.70;;;15.00;90.00;;;;;;5055494;28;20055;-28
2022/10/22 08:08:18;;;;;;;4.57;2.20;;;15.00;90.00;;;;;;5055518;28;20455;-27
2022/10/22 08:10:46;;;;;;;5.00;2.00;;;15.00;90.00;;;;;;5054047;28;20032;-26
2022/10/22 08:13:12;;;;;;;5.38;2.50;;;15.00;90.00;;;;;;5055401;28;20021;-26
2022/10/22 08:15:38;;;;;;;6.57;2.33;;;15.10;90.00;;;;;;5055403;28;20032;-33
2022/10/22 08:18:04;;;;;;;6.20;2.50;;;15.20;90.00;;;;;;5055436;28;20498;-29
2022/10/22 08:20:30;;;;;;;9.50;2.45;;;15.20;89.80;;;;;;5055086;28;20108;-29
2022/10/22 08:22:55;;;;;;;7.07;2.30;;;15.30;89.70;;;;;;5055134;28;20139;-28
2022/10/22 08:25:21;;;;;;;9.13;2.33;;;15.40;89.60;;;;;;5054974;28;20452;-27
2022/10/22 08:27:47;;;;;;;7.43;2.22;;;15.50;89.50;;;;;;5054935;28;20090;-25
2022/10/22 08:30:13;;;;;;;6.03;2.30;;;15.50;89.30;;;;;;5055045;28;20064;-29
2022/10/22 08:32:39;;;;;;;6.45;2.17;;;15.50;89.30;;;;;;5054734;28;20068;-28
2022/10/22 08:35:05;;;;;;;6.68;2.20;;;15.60;89.20;;;;;;5054947;28;20078;-27
2022/10/22 08:37:30;;;;;;;9.85;2.20;;;15.60;89.10;;;;;;5054802;28;20041;-32
2022/10/22 08:39:56;;;;;;;5.30;2.08;;;15.60;89.00;;;;;;5054775;28;20024;-28
2022/10/22 08:43:04;;;;;;;7.43;1.73;;;15.60;88.90;;;;;;5054646;28;20032;-28
2022/10/22 08:45:44;;;;;;;5.13;1.90;;;15.70;88.90;;;;;;5054457;28;20136;-28
2022/10/22 08:48:29;;;;;;;5.68;2.33;;;15.80;88.80;;;;;;5054386;28;20022;-28
2022/10/22 08:50:56;;;;;;;3.53;1.70;;;15.80;88.70;;;;;;5053691;28;20017;-26
2022/10/22 08:53:35;;;;;;;5.88;1.90;;;15.80;88.50;;;;;;5053766;28;20044;-25
2022/10/22 08:56:01;;;;;;;4.88;1.77;;;15.90;88.50;;;;;;5054314;28;20025;-29
2022/10/22 08:59:22;;;;;;;6.60;1.85;;;16.00;88.40;;;;;;5054200;28;20029;-30
2022/10/22 09:01:51;;;;;;;5.40;1.95;;;16.00;88.20;;;;;;5031542;28;20068;-26
2022/10/22 09:04:40;;;;;;;6.40;2.10;;;16.00;88.10;;;;;;5053477;28;20072;-28
2022/10/22 09:07:09;;;;;;;6.18;2.17;;;16.10;88.00;;;;;;5054090;28;20040;-30
2022/10/22 09:09:41;;;;;;;4.57;1.85;;;16.10;87.80;;;;;;5053890;28;20028;-27
2022/10/22 09:12:12;;;;;;;4.50;1.85;;;16.10;87.80;;;;;;5054214;28;20452;-27
2022/10/22 09:14:38;;;;;;;4.32;1.70;;;16.10;87.80;;;;;;5053853;28;20145;-27
2022/10/22 09:17:22;;;;;;;4.35;1.75;;;16.20;87.80;;;;;;5053733;28;20033;-44
2022/10/22 09:20:14;;;;;;;8.23;1.92;;;16.20;87.80;;;;;;5053800;28;20402;-43
2022/10/22 09:23:12;;;;;;;7.70;2.10;;;16.20;87.70;;;;;;5053738;28;20461;-45
2022/10/22 09:25:39;;;;;;;5.13;1.73;;;16.10;88.20;;;;;;5053926;28;20025;-43
2022/10/22 09:28:04;;;;;;;7.43;2.13;;;16.10;87.80;;;;;;5054079;28;20017;-42
2022/10/22 09:30:34;;;;;;;5.38;1.92;;;16.10;87.80;;;;;;5054298;28;20025;-44
2022/10/22 09:33:06;;;;;;;4.03;1.38;;;16.00;87.80;;;;;;5054001;28;20071;-44
2022/10/22 09:36:02;;;;;;;4.13;1.50;;;16.00;87.80;;;;;;5053894;28;20469;-34
2022/10/22 09:38:37;;;;;;;6.18;1.83;;;16.00;87.90;;;;;;5051993;28;20041;-33
2022/10/22 09:41:03;;;;;;;3.65;1.70;;;16.00;88.00;;;;;;5053880;28;20029;-36
2022/10/22 09:43:29;;;;;;;3.42;1.45;;;16.00;88.00;;;;;;5053684;28;20055;-35
2022/10/22 09:46:03;;;;;;;4.35;1.40;;;16.00;88.00;;;;;;5053969;28;20426;-35
2022/10/22 09:48:39;;;;;;;5.13;1.67;;;16.10;88.10;;;;;;5054144;28;20452;-33
2022/10/22 09:51:13;;;;;;;5.68;1.90;;;16.10;88.00;;;;;;5054003;28;20453;-38
2022/10/22 09:53:45;;;;;;;4.22;1.65;;;16.10;88.00;;;;;;5052683;28;20025;-35
2022/10/22 09:56:19;;;;;;;6.68;1.45;;;16.20;88.00;;;;;;5053671;28;20357;-34
2022/10/22 09:58:49;;;;;;;6.63;1.80;;;16.20;87.90;;;;;;5053734;28;20033;-36
2022/10/22 10:01:17;;;;;;;5.90;1.70;;;16.20;87.80;;;;;;5053258;28;20326;-33
2022/10/22 10:03:43;;;;;;;3.95;1.50;;;16.30;87.80;;;;;;5053179;28;20029;-35
2022/10/22 10:06:08;;;;;;;5.05;1.55;;;16.30;87.70;;;;;;5053356;28;20547;-36
2022/10/22 10:08:34;;;;;;;8.45;1.85;;;16.40;87.70;;;;;;5053072;28;20025;-40
2022/10/22 10:11:27;;;;;;;4.72;1.60;;;16.40;87.60;;;;;;5051208;28;20056;-35
2022/10/22 10:14:24;;;;;;;6.20;2.00;;;16.50;87.40;;;;;;5052162;28;20017;-36
2022/10/22 10:17:29;;;;;;;6.00;1.77;;;16.60;87.30;;;;;;5042144;28;20048;-37
2022/10/22 10:19:59;;;;;;;4.18;1.65;;;16.60;87.80;;;;;;5051233;28;20025;-45
2022/10/22 10:23:07;;;;;;;3.83;1.80;;;16.60;87.00;;;;;;5052322;28;20028;-37
2022/10/22 10:26:06;;;;;;;6.32;2.00;;;16.70;86.90;;;;;;5052424;28;20025;-37
2022/10/22 10:29:00;;;;;;;6.85;1.98;;;16.70;86.70;;;;;;5050788;28;20481;-35
2022/10/22 10:31:47;;;;;;;4.07;1.70;;;16.70;86.60;;;;;;5051848;28;20025;-35
2022/10/22 10:34:38;;;;;;;6.25;2.20;;;16.80;86.60;;;;;;5051720;28;20085;-35
2022/10/22 10:37:34;;;;;;;4.05;1.90;;;16.80;86.60;;;;;;5051843;28;20028;-40
2022/10/22 10:40:47;;;;;;;6.38;1.98;;;16.80;86.50;;;;;;5051651;28;20029;-35
2022/10/22 10:43:23;;;;;;;6.00;1.95;;;16.80;86.60;;;;;;5029125;28;20065;-36
2022/10/22 10:46:06;;;;;;;5.65;1.80;;;16.70;86.60;;;;;;5028877;28;20029;-39
2022/10/22 10:48:50;;;;;;;;;;;16.70;86.60;;;;;;5045248;28;20029;-35
2022/10/22 10:51:47;;;;;;;6.95;1.98;;;16.80;86.70;;;;;;5051307;28;20149;-35
2022/10/22 10:54:56;;;;;;;4.20;1.80;;;16.90;86.60;;;;;;5050719;28;20036;-35
2022/10/22 10:57:27;;;;;;;4.20;1.88;;;16.90;86.50;;;;;;5012217;28;20029;-35
2022/10/22 11:00:08;;;;;;;6.63;2.17;;;17.00;86.50;;;;;;5046842;28;20048;-30
2022/10/22 11:03:21;;;;;;;4.95;1.80;;;17.10;86.20;;;;;;5051287;28;20033;-33
2022/10/22 11:06:00;;;;;;;5.38;1.80;;;17.20;86.10;;;;;;5051370;28;20054;-33
2022/10/22 11:08:30;;;;;;;6.72;2.13;;;17.30;86.00;;;;;;5051296;28;20039;-30
2022/10/22 11:11:00;;;;;;;4.25;1.80;;;17.40;85.90;;;;;;5051511;28;20172;-28
2022/10/22 11:13:50;;;;;;;7.18;2.03;;;17.50;85.40;;;;;;5051199;28;20056;-29
2022/10/22 11:16:46;;;;;;;7.88;2.10;;;17.60;85.10;;;;;;5050838;28;20473;-29
2022/10/22 11:19:18;;;;;;;5.72;2.00;;;17.70;84.90;;;;;;5051425;28;20037;-32
2022/10/22 11:21:53;;;;;;;5.20;1.60;;;17.70;84.80;;;;;;5051307;28;20392;-34
2022/10/22 11:24:29;;;;;;;4.07;1.70;;;17.90;84.70;;;;;;5051207;28;20028;-38
2022/10/22 11:27:03;;;;;;;6.55;1.70;;;18.00;84.30;;;;;;5051195;28;20485;-45
2022/10/22 11:29:37;;;;;;;5.97;2.08;;;18.10;84.10;;;;;;5050952;28;20029;-43
2022/10/22 11:32:05;;;;;;;4.70;1.77;;;18.20;83.60;;;;;;5051206;28;20100;-45
2022/10/22 11:34:41;;;;;;;5.45;1.60;;;18.30;83.50;;;;;;5050982;28;20028;-45
2022/10/22 11:37:09;;;;;;;5.85;1.80;;;18.30;82.80;;;;;;5051386;28;20329;-27
2022/10/22 11:39:54;;;;;;;3.30;1.58;;;18.40;82.70;;;;;;5051108;28;20186;-31
2022/10/22 11:42:43;;;;;;;6.30;1.83;;;18.40;82.20;;;;;;5051009;28;20033;-29
2022/10/22 11:45:15;;;;;;;8.23;1.77;;;18.50;81.90;;;;;;5050775;28;20041;-43
2022/10/22 11:48:09;;;;;;;5.85;1.75;;;18.50;81.60;;;;;;5050758;28;20029;-30
2022/10/22 11:50:53;;;;;;;5.10;2.40;;;18.50;81.20;;;;;;5050866;28;20392;-28
2022/10/22 11:53:39;;;;;;;5.57;1.73;;;18.50;80.50;;;;;;5050965;28;20032;-32
2022/10/22 11:56:09;;;;;;;6.50;2.08;;;18.40;80.70;;;;;;5050340;28;20051;-27
2022/10/22 11:58:38;;;;;;;3.50;1.40;;;18.40;80.60;;;;;;5050771;28;20369;-31
2022/10/22 12:01:06;;;;;;;5.70;1.98;;;18.40;80.70;;;;;;5049283;28;20531;-36
2022/10/22 12:03:32;;;;;;;5.47;1.77;;;18.40;80.60;;;;;;5050911;28;20052;-34
2022/10/22 12:06:20;;;;;;;5.22;1.50;;;18.30;80.30;;;;;;5050977;28;20033;-26
2022/10/22 12:08:50;;;;;;;8.80;1.98;;;18.40;80.20;;;;;;5046993;28;20061;-30
2022/10/22 12:11:19;;;;;;;8.25;2.10;;;18.30;80.00;;;;;;5051145;28;20385;-27
2022/10/22 12:14:21;;;;;;;5.22;1.90;;;18.20;79.60;;;;;;5050668;28;20104;-34
2022/10/22 12:17:14;;;;;;;9.85;2.03;;;18.20;79.30;;;;;;5050864;28;20032;-27
2022/10/22 12:19:54;;;;;;;7.03;1.60;;;18.20;79.00;;;;;;5048333;28;20504;-29
2022/10/22 12:22:31;;;;;;;5.65;1.73;;;18.20;79.10;;;;;;5050589;28;20033;-34
2022/10/22 12:25:01;;;;;;;7.35;2.13;;;18.20;78.80;;;;;;5050760;28;20080;-31
2022/10/22 12:27:38;;;;;;;6.47;1.60;;;18.30;78.70;;;;;;5054186;28;20464;-26
2022/10/22 12:30:18;;;;;;;6.00;1.65;;;18.40;78.40;;;;;;5054554;28;20032;-31
2022/10/22 12:32:44;;;;;;;5.85;1.65;;;18.40;78.30;;;;;;5054252;28;20381;-27
2022/10/22 12:35:18;;;;;;;5.85;1.80;;;18.40;78.50;;;;;;5053204;28;20021;-28
2022/10/22 12:37:48;;;;;;;5.03;1.27;;;18.30;78.60;;;;;;5054411;28;20099;-27
2022/10/22 12:40:28;;;;;;;9.02;2.30;;;18.30;78.90;;;;;;5054262;28;20373;-31
2022/10/22 12:43:00;;;;;;;8.02;2.00;;;18.20;78.70;;;;;;5053978;28;20053;-27
2022/10/22 12:45:28;;;;;;;6.10;2.13;;;18.10;78.90;;;;;;5053881;28;20041;-28
2022/10/22 12:47:59;;;;;;;7.72;1.70;;;18.00;79.10;;;;;;5052775;28;20492;-28
2022/10/22 12:50:40;;;;;;;5.20;1.38;;;18.00;79.30;;;;;;5053871;28;20109;-36
2022/10/22 12:53:27;;;;;;;4.70;1.50;;;17.90;79.40;;;;;;5053921;28;20033;-26
2022/10/22 12:55:55;;;;;;;7.10;1.70;;;17.90;79.30;;;;;;5053705;28;20028;-33
2022/10/22 12:58:38;;;;;;;6.50;1.90;;;17.80;79.20;;;;;;5053649;28;20400;-33
2022/10/22 13:01:05;;;;;;;4.85;1.50;;;17.90;79.30;;;;;;5053605;28;20060;-27
2022/10/22 13:03:38;;;;;;;6.15;1.30;;;18.00;79.20;;;;;;5053608;28;20033;-27
2022/10/22 13:06:19;;;;;;;3.10;1.20;;;18.10;79.10;;;;;;5053389;28;20086;-29
2022/10/22 13:09:16;;;;;;;4.72;1.30;;;18.20;78.80;;;;;;5053669;28;20108;-28
2022/10/22 13:12:03;;;;;;;5.18;2.05;;;18.30;78.70;;;;;;5053587;28;20044;-27